createdAt,value
2022-09-12T00:01:11.095Z,100401.88
2022-09-12T00:03:38.936Z,100403.56
2022-09-12T00:06:23.157Z,100412.22
2022-09-12T00:08:51.006Z,100416.19
2022-09-12T00:11:18.779Z,100406.75
2022-09-12T00:13:45.675Z,100417.81
2022-09-12T00:16:18.098Z,100407.63
2022-09-12T00:18:47.036Z,100417.03
2022-09-12T00:21:15.816Z,100414.78
2022-09-12T00:23:42.851Z,100413.87
2022-09-12T00:26:09.955Z,100419.34
2022-09-12T00:28:38.710Z,100418.56
2022-09-12T00:31:12.321Z,100419.47
2022-09-12T00:33:39.721Z,100417.59
2022-09-12T00:36:09.392Z,100421.84
2022-09-12T00:38:38.887Z,100418.31
2022-09-12T00:41:06.497Z,100424.28
2022-09-12T00:43:45.905Z,100421.62
2022-09-12T00:46:20.856Z,100412.34
2022-09-12T00:49:00.558Z,100413.09
2022-09-12T00:51:51.666Z,100418.28
2022-09-12T00:54:24.526Z,100406.78
2022-09-12T00:56:55.919Z,100419.81
2022-09-12T00:59:29.446Z,100419.69
2022-09-12T01:01:56.896Z,100415.78
2022-09-12T01:04:26.449Z,100420.06
2022-09-12T01:06:56.533Z,100425.00
2022-09-12T01:09:24.041Z,100418.88
2022-09-12T01:11:52.130Z,100416.09
2022-09-12T01:14:19.896Z,100415.50
2022-09-12T01:16:48.635Z,100409.97
2022-09-12T01:19:31.997Z,100410.41
2022-09-12T01:22:49.276Z,100416.19
2022-09-12T01:25:31.351Z,100406.06
2022-09-12T01:28:46.663Z,100401.16
2022-09-12T01:31:42.718Z,100392.94
2022-09-12T01:34:29.066Z,100398.03
2022-09-12T01:37:25.177Z,100385.94
2022-09-12T01:40:01.590Z,100389.19
2022-09-12T01:42:33.985Z,100389.16
2022-09-12T01:45:11.965Z,100383.97
2022-09-12T01:47:44.166Z,100381.22
2022-09-12T01:50:19.611Z,100377.72
2022-09-12T01:52:54.875Z,100389.22
2022-09-12T01:55:32.707Z,100380.03
2022-09-12T01:58:22.786Z,100379.25
2022-09-12T02:01:02.602Z,100377.44
2022-09-12T02:03:45.199Z,100375.59
2022-09-12T02:06:25.517Z,100381.78
2022-09-12T02:09:01.757Z,100387.44
2022-09-12T02:11:31.987Z,100383.84
2022-09-12T02:14:25.744Z,100387.19
2022-09-12T02:17:03.886Z,100386.88
2022-09-12T02:19:36.629Z,100383.63
2022-09-12T02:22:05.199Z,100382.28
2022-09-12T02:24:45.816Z,100380.38
2022-09-12T02:27:15.115Z,100381.78
2022-09-12T02:29:44.769Z,100384.88
2022-09-12T02:32:24.406Z,100371.31
2022-09-12T02:35:16.035Z,100372.56
2022-09-12T02:37:57.867Z,100375.97
2022-09-12T02:40:25.788Z,100370.59
2022-09-12T02:42:52.927Z,100368.25
2022-09-12T02:45:20.139Z,100367.50
2022-09-12T02:48:20.546Z,100367.66
2022-09-12T02:50:47.666Z,100366.63
2022-09-12T02:53:14.581Z,100359.19
2022-09-12T02:55:43.116Z,100356.00
2022-09-12T02:58:15.576Z,100369.22
2022-09-12T03:00:46.786Z,100364.59
2022-09-12T03:03:52.686Z,100361.97
2022-09-12T03:06:31.596Z,100366.28
2022-09-12T03:09:02.106Z,100377.13
2022-09-12T03:11:47.034Z,100370.66
2022-09-12T03:14:26.826Z,100382.97
2022-09-12T03:16:59.177Z,100383.78
2022-09-12T03:19:56.766Z,100385.97
2022-09-12T03:22:29.265Z,100386.63
2022-09-12T03:25:06.560Z,100388.00
2022-09-12T03:27:54.376Z,100390.44
2022-09-12T03:30:21.147Z,100387.31
2022-09-12T03:32:51.152Z,100379.59
2022-09-12T03:35:23.115Z,100384.41
2022-09-12T03:37:51.034Z,100393.75
2022-09-12T03:40:17.946Z,100395.72
2022-09-12T03:42:44.690Z,100394.81
2022-09-12T03:45:11.921Z,100390.72
2022-09-12T03:47:38.948Z,100392.78
2022-09-12T03:50:06.588Z,100392.25
2022-09-12T03:52:34.239Z,100392.03
2022-09-12T03:55:00.939Z,100395.16
2022-09-12T03:57:27.647Z,100395.56
2022-09-12T03:59:54.316Z,100398.22
2022-09-12T04:02:21.400Z,100404.62
2022-09-12T04:04:48.961Z,100402.63
2022-09-12T04:07:16.879Z,100401.88
2022-09-12T04:09:44.066Z,100405.06
2022-09-12T04:12:10.846Z,100398.47
2022-09-12T04:14:37.832Z,100407.72
2022-09-12T04:17:04.639Z,100412.03
2022-09-12T04:19:31.359Z,100409.03
2022-09-12T04:21:58.274Z,100415.56
2022-09-12T04:24:24.957Z,100413.44
2022-09-12T04:26:51.967Z,100408.47
2022-09-12T04:29:18.673Z,100413.63
2022-09-12T04:31:45.358Z,100409.87
2022-09-12T04:34:12.062Z,100408.75
2022-09-12T04:36:39.393Z,100409.69
2022-09-12T04:39:07.839Z,100416.00
2022-09-12T04:41:37.268Z,100422.41
2022-09-12T04:44:08.220Z,100417.00
2022-09-12T04:46:38.796Z,100414.41
2022-09-12T04:49:06.076Z,100416.50
2022-09-12T04:51:35.983Z,100418.09
2022-09-12T04:54:15.338Z,100408.34
2022-09-12T04:56:44.062Z,100408.88
2022-09-12T04:59:12.075Z,100411.28
2022-09-12T05:01:39.245Z,100410.50
2022-09-12T05:04:06.381Z,100410.47
2022-09-12T05:06:35.581Z,100414.44
2022-09-12T05:09:05.347Z,100416.44
2022-09-12T05:12:02.106Z,100417.34
2022-09-12T05:14:20.538Z,100408.06
2022-09-12T05:16:49.584Z,100409.31
2022-09-12T05:19:17.302Z,100415.69
2022-09-12T05:21:43.952Z,100422.38
2022-09-12T05:24:11.669Z,100416.31
2022-09-12T05:26:38.596Z,100423.94
2022-09-12T05:29:07.232Z,100415.56
2022-09-12T05:31:35.030Z,100416.31
2022-09-12T05:34:01.997Z,100417.06
2022-09-12T05:36:30.065Z,100419.78
2022-09-12T05:38:57.628Z,100414.38
2022-09-12T05:41:33.046Z,100418.03
2022-09-12T05:44:02.605Z,100420.44
2022-09-12T05:46:40.037Z,100425.91
2022-09-12T05:49:10.491Z,100422.03
2022-09-12T05:51:39.938Z,100419.66
2022-09-12T05:54:07.946Z,100415.31
2022-09-12T05:56:41.087Z,100417.28
2022-09-12T05:59:13.106Z,100419.00
2022-09-12T06:01:40.532Z,100413.22
2022-09-12T06:04:07.893Z,100410.47
2022-09-12T06:06:41.902Z,100425.50
2022-09-12T06:09:09.450Z,100425.84
2022-09-12T06:11:40.888Z,100414.00
2022-09-12T06:14:08.966Z,100416.41
2022-09-12T06:16:37.473Z,100419.94
2022-09-12T06:19:07.575Z,100415.66
2022-09-12T06:21:35.545Z,100416.00
2022-09-12T06:24:02.767Z,100422.06
2022-09-12T06:26:30.438Z,100424.63
2022-09-12T06:28:59.619Z,100420.47
2022-09-12T06:31:32.027Z,100419.19
2022-09-12T06:34:01.723Z,100419.44
2022-09-12T06:36:46.354Z,100416.37
2022-09-12T06:39:20.206Z,100419.47
2022-09-12T06:41:48.498Z,100413.22
2022-09-12T06:44:22.984Z,100421.91
2022-09-12T06:46:50.393Z,100425.81
2022-09-12T06:49:18.232Z,100422.72
2022-09-12T06:51:45.448Z,100422.16
2022-09-12T06:54:14.357Z,100420.59
2022-09-12T06:56:41.672Z,100428.13
2022-09-12T06:59:08.786Z,100430.94
2022-09-12T07:01:35.593Z,100434.38
2022-09-12T07:04:04.475Z,100435.69
2022-09-12T07:06:37.312Z,100430.13
2022-09-12T07:09:05.517Z,100429.41
2022-09-12T07:11:35.086Z,100432.59
2022-09-12T07:14:04.015Z,100437.00
2022-09-12T07:16:34.507Z,100429.31
2022-09-12T07:19:03.518Z,100439.59
2022-09-12T07:21:31.211Z,100432.66
2022-09-12T07:23:58.566Z,100432.03
2022-09-12T07:26:27.831Z,100425.25
2022-09-12T07:29:03.947Z,100425.56
2022-09-12T07:31:39.942Z,100426.09
2022-09-12T07:34:06.987Z,100428.50
2022-09-12T07:36:33.815Z,100422.69
2022-09-12T07:39:00.777Z,100432.72
2022-09-12T07:41:33.717Z,100434.88
2022-09-12T07:44:03.069Z,100429.03
2022-09-12T07:46:31.648Z,100424.78
2022-09-12T07:48:59.888Z,100420.69
2022-09-12T07:51:29.026Z,100423.03
2022-09-12T07:53:56.713Z,100434.75
2022-09-12T07:56:30.500Z,100431.53
2022-09-12T07:58:58.117Z,100430.50
2022-09-12T08:01:24.911Z,100415.78
2022-09-12T08:03:57.396Z,100421.81
2022-09-12T08:06:25.909Z,100431.84
2022-09-12T08:08:55.649Z,100434.22
2022-09-12T08:11:24.026Z,100419.53
2022-09-12T08:13:55.459Z,100427.22
2022-09-12T08:16:25.500Z,100425.38
2022-09-12T08:18:52.874Z,100424.94
2022-09-12T08:21:22.346Z,100421.41
2022-09-12T08:23:52.690Z,100417.47
2022-09-12T08:26:19.921Z,100406.84
2022-09-12T08:28:47.077Z,100400.91
2022-09-12T08:31:16.911Z,100401.41
2022-09-12T08:33:44.459Z,100401.16
2022-09-12T08:36:22.807Z,100404.50
2022-09-12T08:38:53.639Z,100403.44
2022-09-12T08:41:28.876Z,100401.53
2022-09-12T08:44:08.976Z,100410.28
2022-09-12T08:46:44.972Z,100404.97
2022-09-12T08:49:23.566Z,100407.66
2022-09-12T08:51:51.127Z,100407.66
2022-09-12T08:54:36.647Z,100410.03
2022-09-12T08:57:07.287Z,100410.28
2022-09-12T08:59:44.979Z,100399.63
2022-09-12T09:02:51.354Z,100413.06
2022-09-12T09:05:52.770Z,100405.72
2022-09-12T09:08:23.081Z,100403.44
2022-09-12T09:11:05.584Z,100394.09
2022-09-12T09:14:09.175Z,100391.06
2022-09-12T09:16:45.763Z,100390.75
2022-09-12T09:19:23.056Z,100393.81
2022-09-12T09:22:00.987Z,100385.13
2022-09-12T09:24:50.893Z,100387.56
2022-09-12T09:27:41.048Z,100388.31
2022-09-12T09:30:21.701Z,100395.59
2022-09-12T09:32:55.407Z,100392.66
2022-09-12T09:35:45.215Z,100387.66
2022-09-12T09:38:36.795Z,100378.88
2022-09-12T09:41:24.796Z,100383.09
2022-09-12T09:43:51.826Z,100376.88
2022-09-12T09:46:18.845Z,100377.22
2022-09-12T09:48:49.657Z,100383.75
2022-09-12T09:51:27.255Z,100377.78
2022-09-12T09:54:02.748Z,100368.78
2022-09-12T09:56:34.299Z,100379.84
2022-09-12T09:59:18.836Z,100375.34
2022-09-12T10:01:45.591Z,100373.78
2022-09-12T10:04:23.709Z,100369.59
2022-09-12T10:06:57.346Z,100369.97
2022-09-12T10:09:36.256Z,100381.44
2022-09-12T10:12:25.236Z,100372.94
2022-09-12T10:15:00.861Z,100367.88
2022-09-12T10:17:44.205Z,100376.63
2022-09-12T10:20:32.587Z,100366.31
2022-09-12T10:23:02.279Z,100362.06
2022-09-12T10:25:29.481Z,100368.81
2022-09-12T10:27:59.867Z,100373.00
2022-09-12T10:30:30.964Z,100364.81
2022-09-12T10:33:06.583Z,100361.03
2022-09-12T10:35:45.229Z,100356.72
2022-09-12T10:38:21.628Z,100355.00
2022-09-12T10:40:58.077Z,100362.50
2022-09-12T10:43:34.569Z,100351.53
2022-09-12T10:46:16.708Z,100344.19
2022-09-12T10:48:45.437Z,100351.31
2022-09-12T10:51:26.546Z,100343.75
2022-09-12T10:54:00.227Z,100348.75
2022-09-12T10:56:39.132Z,100339.78
2022-09-12T10:59:24.555Z,100330.34
2022-09-12T11:02:33.316Z,100325.56
2022-09-12T11:05:23.007Z,100335.97
2022-09-12T11:08:00.417Z,100336.44
2022-09-12T11:10:27.449Z,100324.06
2022-09-12T11:13:23.887Z,100330.09
2022-09-12T11:16:02.943Z,100324.44
2022-09-12T11:18:54.993Z,100318.00
2022-09-12T11:21:52.787Z,100328.78
2022-09-12T11:24:28.275Z,100325.00
2022-09-12T11:27:46.007Z,100326.09
2022-09-12T11:30:16.505Z,100319.94
2022-09-12T11:32:43.187Z,100316.06
2022-09-12T11:35:17.670Z,100315.37
2022-09-12T11:38:03.199Z,100317.06
2022-09-12T11:40:36.243Z,100313.62
2022-09-12T11:43:29.938Z,100306.84
2022-09-12T11:46:07.188Z,100312.81
2022-09-12T11:48:44.220Z,100312.06
2022-09-12T11:51:26.018Z,100310.25
2022-09-12T11:54:03.709Z,100313.22
2022-09-12T11:56:30.826Z,100305.31
2022-09-12T11:59:04.452Z,100307.72
2022-09-12T12:01:44.948Z,100308.28
2022-09-12T12:04:20.782Z,100303.62
2022-09-12T12:06:58.154Z,100303.56
2022-09-12T12:09:25.842Z,100300.94
2022-09-12T12:11:57.745Z,100302.91
2022-09-12T12:14:32.097Z,100303.47
2022-09-12T12:16:59.466Z,100304.72
2022-09-12T12:19:38.354Z,100304.56
2022-09-12T12:22:20.377Z,100309.25
2022-09-12T12:25:06.088Z,100299.81
2022-09-12T12:27:59.486Z,100297.22
2022-09-12T12:30:32.126Z,100301.50
2022-09-12T12:33:07.110Z,100304.00
2022-09-12T12:35:47.020Z,100303.91
2022-09-12T12:38:31.198Z,100294.09
2022-09-12T12:41:21.807Z,100299.28
2022-09-12T12:43:53.327Z,100288.53
2022-09-12T12:46:26.260Z,100285.97
2022-09-12T12:49:00.800Z,100281.22
2022-09-12T12:51:36.786Z,100285.81
2022-09-12T12:54:25.507Z,100280.25
2022-09-12T12:57:05.953Z,100280.91
2022-09-12T12:59:32.988Z,100273.41
2022-09-12T13:02:00.356Z,100277.81
2022-09-12T13:04:30.728Z,100279.62
2022-09-12T13:07:07.200Z,100272.25
2022-09-12T13:09:40.224Z,100266.50
2022-09-12T13:12:11.682Z,100269.97
2022-09-12T13:14:50.499Z,100288.88
2022-09-12T13:17:30.981Z,100276.00
2022-09-12T13:20:27.264Z,100288.41
2022-09-12T13:22:55.535Z,100283.81
2022-09-12T13:25:27.036Z,100287.63
2022-09-12T13:28:07.874Z,100287.06
2022-09-12T13:30:40.391Z,100277.91
2022-09-12T13:33:25.000Z,100275.81
2022-09-12T13:36:03.636Z,100275.28
2022-09-12T13:39:13.747Z,100274.22
2022-09-12T13:41:58.638Z,100278.44
2022-09-12T13:44:27.083Z,100264.91
2022-09-12T13:46:55.700Z,100264.34
2022-09-12T13:49:38.579Z,100253.22
2022-09-12T13:52:09.636Z,100263.16
2022-09-12T13:54:39.166Z,100257.22
2022-09-12T13:57:06.520Z,100270.87
2022-09-12T13:59:41.298Z,100266.94
2022-09-12T14:02:23.156Z,100256.72
2022-09-12T14:05:09.296Z,100259.22
2022-09-12T14:07:53.467Z,100256.12
2022-09-12T14:10:26.577Z,100252.66
2022-09-12T14:12:55.449Z,100250.06
2022-09-12T14:15:28.268Z,100247.03
2022-09-12T14:18:01.521Z,100249.16
2022-09-12T14:20:33.255Z,100242.12
2022-09-12T14:23:28.397Z,100249.25
2022-09-12T14:25:57.176Z,100241.56
2022-09-12T14:28:27.349Z,100241.16
2022-09-12T14:31:06.979Z,100250.59
2022-09-12T14:33:55.377Z,100241.81
2022-09-12T14:36:35.697Z,100245.06
2022-09-12T14:39:05.856Z,100245.75
2022-09-12T14:41:39.100Z,100249.75
2022-09-12T14:44:10.797Z,100242.78
2022-09-12T14:46:40.614Z,100239.38
2022-09-12T14:49:34.707Z,100236.81
2022-09-12T14:52:26.227Z,100225.38
2022-09-12T14:55:18.088Z,100230.91
2022-09-12T14:57:45.375Z,100223.84
2022-09-12T15:00:12.083Z,100223.31
2022-09-12T15:02:40.268Z,100223.97
2022-09-12T15:05:06.992Z,100227.13
2022-09-12T15:07:37.807Z,100222.09
2022-09-12T15:10:34.046Z,100222.50
2022-09-12T15:13:09.871Z,100224.06
2022-09-12T15:15:38.047Z,100230.66
2022-09-12T15:18:06.848Z,100235.81
2022-09-12T15:20:36.567Z,100238.03
2022-09-12T15:23:03.170Z,100232.63
2022-09-12T15:25:30.023Z,100230.37
2022-09-12T15:27:56.717Z,100231.53
2022-09-12T15:30:23.376Z,100224.66
2022-09-12T15:32:50.090Z,100223.41
2022-09-12T15:35:23.756Z,100228.13
2022-09-12T15:37:51.276Z,100230.66
2022-09-12T15:40:18.357Z,100230.44
2022-09-12T15:42:45.288Z,100227.19
2022-09-12T15:45:21.118Z,100228.44
2022-09-12T15:47:47.918Z,100219.31
2022-09-12T15:50:15.290Z,100218.56
2022-09-12T15:52:42.849Z,100222.22
2022-09-12T15:55:18.604Z,100214.66
2022-09-12T15:57:45.938Z,100216.03
2022-09-12T16:00:14.652Z,100219.19
2022-09-12T16:02:41.749Z,100214.34
2022-09-12T16:05:15.110Z,100218.50
2022-09-12T16:07:42.661Z,100216.94
2022-09-12T16:10:15.196Z,100218.59
2022-09-12T16:12:42.467Z,100218.97
2022-09-12T16:15:14.008Z,100218.03
2022-09-12T16:17:41.061Z,100224.44
2022-09-12T16:20:08.346Z,100219.56
2022-09-12T16:22:35.092Z,100214.28
2022-09-12T16:25:02.239Z,100217.34
2022-09-12T16:27:28.917Z,100212.59
2022-09-12T16:29:55.847Z,100219.19
2022-09-12T16:32:22.579Z,100219.13
2022-09-12T16:34:50.397Z,100213.13
2022-09-12T16:37:18.342Z,100229.53
2022-09-12T16:39:46.184Z,100221.06
2022-09-12T16:42:12.898Z,100219.75
2022-09-12T16:44:39.677Z,100224.66
2022-09-12T16:47:06.681Z,100216.53
2022-09-12T16:49:33.496Z,100217.06
2022-09-12T16:52:00.162Z,100227.75
2022-09-12T16:54:26.927Z,100225.06
2022-09-12T16:56:53.762Z,100221.44
2022-09-12T16:59:20.562Z,100216.72
2022-09-12T17:01:47.404Z,100221.06
2022-09-12T17:04:14.118Z,100217.66
2022-09-12T17:06:42.118Z,100217.41
2022-09-12T17:09:10.713Z,100222.03
2022-09-12T17:11:38.917Z,100222.91
2022-09-12T17:14:08.947Z,100214.81
2022-09-12T17:16:45.937Z,100217.72
2022-09-12T17:19:22.989Z,100222.50
2022-09-12T17:21:50.325Z,100218.41
2022-09-12T17:24:18.464Z,100227.78
2022-09-12T17:26:46.198Z,100225.44
2022-09-12T17:29:14.811Z,100228.69
2022-09-12T17:31:43.006Z,100236.53
2022-09-12T17:34:10.076Z,100233.00
2022-09-12T17:36:37.094Z,100240.53
2022-09-12T17:39:04.276Z,100242.69
2022-09-12T17:41:34.680Z,100250.75
2022-09-12T17:44:03.209Z,100254.94
2022-09-12T17:46:35.242Z,100255.28
2022-09-12T17:49:03.846Z,100257.19
2022-09-12T17:51:31.390Z,100267.81
2022-09-12T17:54:03.768Z,100253.19
2022-09-12T17:56:32.532Z,100264.41
2022-09-12T17:59:00.465Z,100261.00
2022-09-12T18:01:47.310Z,100264.37
2022-09-12T18:04:14.479Z,100265.97
2022-09-12T18:06:48.060Z,100270.41
2022-09-12T18:09:18.296Z,100270.66
2022-09-12T18:11:45.982Z,100268.94
2022-09-12T18:14:14.397Z,100272.41
2022-09-12T18:16:42.216Z,100272.75
2022-09-12T18:19:09.414Z,100275.38
2022-09-12T18:21:36.460Z,100281.59
2022-09-12T18:24:04.404Z,100272.62
2022-09-12T18:26:32.349Z,100288.47
2022-09-12T18:28:59.503Z,100290.38
2022-09-12T18:31:29.628Z,100294.37
2022-09-12T18:33:57.848Z,100292.53
2022-09-12T18:36:26.268Z,100292.13
2022-09-12T18:38:53.022Z,100296.72
2022-09-12T18:41:23.178Z,100300.38
2022-09-12T18:43:54.086Z,100303.34
2022-09-12T18:46:21.395Z,100309.13
2022-09-12T18:48:48.536Z,100317.84
2022-09-12T18:51:21.079Z,100318.28
2022-09-12T18:53:54.977Z,100307.06
2022-09-12T18:56:23.461Z,100310.25
2022-09-12T18:58:52.579Z,100313.38
2022-09-12T19:01:22.815Z,100308.84
2022-09-12T19:03:50.428Z,100321.31
2022-09-12T19:06:19.638Z,100321.38
2022-09-12T19:08:47.742Z,100319.50
2022-09-12T19:11:14.759Z,100331.69
2022-09-12T19:13:44.627Z,100329.06
2022-09-12T19:16:14.293Z,100324.22
2022-09-12T19:18:41.334Z,100326.94
2022-09-12T19:21:13.396Z,100336.38
2022-09-12T19:23:40.176Z,100333.81
2022-09-12T19:26:09.079Z,100327.53
2022-09-12T19:28:35.840Z,100336.03
2022-09-12T19:31:07.507Z,100337.38
2022-09-12T19:33:34.891Z,100338.31
2022-09-12T19:36:17.561Z,100330.84
2022-09-12T19:38:54.036Z,100335.28
2022-09-12T19:41:21.682Z,100344.41
2022-09-12T19:43:48.488Z,100341.41
2022-09-12T19:46:20.674Z,100334.47
2022-09-12T19:48:48.090Z,100339.00
2022-09-12T19:51:16.027Z,100344.31
2022-09-12T19:53:42.897Z,100345.66
2022-09-12T19:56:12.014Z,100342.94
2022-09-12T19:58:43.735Z,100339.56
2022-09-12T20:01:25.197Z,100336.69
2022-09-12T20:03:55.047Z,100330.31
2022-09-12T20:06:22.150Z,100334.72
2022-09-12T20:08:49.138Z,100333.78
2022-09-12T20:11:18.185Z,100328.59
2022-09-12T20:13:45.945Z,100326.50
2022-09-12T20:16:21.280Z,100321.59
2022-09-12T20:18:53.927Z,100325.78
2022-09-12T20:21:25.474Z,100324.75
2022-09-12T20:23:52.565Z,100329.03
2022-09-12T20:26:20.694Z,100329.16
2022-09-12T20:28:48.067Z,100329.66
2022-09-12T20:31:16.667Z,100329.66
2022-09-12T20:33:47.575Z,100332.66
2022-09-12T20:36:19.101Z,100329.47
2022-09-12T20:38:51.457Z,100335.19
2022-09-12T20:41:19.278Z,100338.87
2022-09-12T20:43:49.897Z,100330.62
2022-09-12T20:46:21.435Z,100340.62
2022-09-12T20:48:48.754Z,100338.37
2022-09-12T20:51:15.503Z,100337.88
2022-09-12T20:53:42.326Z,100346.25
2022-09-12T20:56:09.101Z,100345.13
2022-09-12T20:58:38.369Z,100338.78
2022-09-12T21:01:11.397Z,100340.97
2022-09-12T21:03:39.177Z,100334.69
2022-09-12T21:06:06.567Z,100336.38
2022-09-12T21:08:33.716Z,100332.00
2022-09-12T21:11:01.102Z,100329.34
2022-09-12T21:13:28.060Z,100341.81
2022-09-12T21:16:02.387Z,100336.28
2022-09-12T21:18:29.606Z,100348.59
2022-09-12T21:20:56.797Z,100343.28
2022-09-12T21:23:25.260Z,100340.25
2022-09-12T21:25:52.844Z,100343.72
2022-09-12T21:28:20.648Z,100341.22
2022-09-12T21:30:51.517Z,100338.94
2022-09-12T21:33:20.336Z,100330.09
2022-09-12T21:35:48.408Z,100336.31
2022-09-12T21:38:16.380Z,100333.47
2022-09-12T21:40:43.136Z,100347.38
2022-09-12T21:43:12.756Z,100342.81
2022-09-12T21:45:40.136Z,100342.28
2022-09-12T21:48:06.828Z,100341.91
2022-09-12T21:50:33.615Z,100336.28
2022-09-12T21:53:00.380Z,100334.34
2022-09-12T21:55:27.537Z,100328.56
2022-09-12T21:57:55.297Z,100327.31
2022-09-12T22:00:22.508Z,100325.06
2022-09-12T22:02:49.439Z,100337.44
2022-09-12T22:05:17.413Z,100331.34
2022-09-12T22:07:44.373Z,100329.50
2022-09-12T22:10:11.140Z,100318.84
2022-09-12T22:12:37.837Z,100316.38
2022-09-12T22:15:22.817Z,100322.59
2022-09-12T22:17:51.935Z,100329.09
2022-09-12T22:20:18.879Z,100331.06
2022-09-12T22:23:04.277Z,100328.41
2022-09-12T22:25:31.388Z,100332.50
2022-09-12T22:27:58.506Z,100328.09
2022-09-12T22:30:27.369Z,100323.41
2022-09-12T22:32:54.156Z,100319.44
2022-09-12T22:35:21.173Z,100324.53
2022-09-12T22:37:48.186Z,100318.00
2022-09-12T22:40:15.881Z,100316.78
2022-09-12T22:42:42.815Z,100323.66
2022-09-12T22:45:10.031Z,100320.16
2022-09-12T22:47:36.726Z,100317.03
2022-09-12T22:50:03.786Z,100324.63
2022-09-12T22:52:30.597Z,100317.81
2022-09-12T22:54:57.367Z,100320.72
2022-09-12T22:57:24.077Z,100325.97
2022-09-12T22:59:50.725Z,100326.72
2022-09-12T23:02:17.413Z,100321.91
2022-09-12T23:04:44.346Z,100324.91
2022-09-12T23:07:11.217Z,100317.41
2022-09-12T23:09:38.005Z,100312.69
2022-09-12T23:12:04.797Z,100318.75
2022-09-12T23:14:31.537Z,100322.97
2022-09-12T23:16:58.166Z,100317.12
2022-09-12T23:19:24.890Z,100313.09
2022-09-12T23:21:51.557Z,100316.03
2022-09-12T23:24:18.236Z,100311.28
2022-09-12T23:26:44.886Z,100311.19
2022-09-12T23:29:11.545Z,100305.31
2022-09-12T23:31:38.306Z,100311.37
2022-09-12T23:34:09.413Z,100307.09
2022-09-12T23:36:37.199Z,100301.16
2022-09-12T23:39:04.348Z,100298.34
2022-09-12T23:41:31.423Z,100301.47
2022-09-12T23:43:58.212Z,100297.31
2022-09-12T23:46:24.897Z,100301.19
2022-09-12T23:48:53.416Z,100301.78
2022-09-12T23:51:21.838Z,100297.41
2022-09-12T23:53:49.436Z,100304.13
2022-09-12T23:56:16.454Z,100302.63
2022-09-12T23:58:43.198Z,100299.28
